sensor_id;sensor_type;location;lat;lon;timestamp;pressure;altitude;pressure_sealevel;temperature
49785;BMP280;35679;38.732;-121.358;2024-02-28T00:01:19;101287.78;;;18.90
49785;BMP280;35679;38.732;-121.358;2024-02-28T00:04:09;101292.09;;;18.91
49785;BMP280;35679;38.732;-121.358;2024-02-28T00:06:58;101283.88;;;18.93
49785;BMP280;35679;38.732;-121.358;2024-02-28T00:09:48;101283.47;;;18.96
49785;BMP280;35679;38.732;-121.358;2024-02-28T00:12:38;101286.78;;;18.98
49785;BMP280;35679;38.732;-121.358;2024-02-28T00:15:28;101277.69;;;18.99
49785;BMP280;35679;38.732;-121.358;2024-02-28T00:18:17;101287.16;;;19.01
49785;BMP280;35679;38.732;-121.358;2024-02-28T00:21:08;101282.44;;;19.03
49785;BMP280;35679;38.732;-121.358;2024-02-28T00:23:57;101286.75;;;19.04
49785;BMP280;35679;38.732;-121.358;2024-02-28T00:26:47;101289.22;;;19.06
49785;BMP280;35679;38.732;-121.358;2024-02-28T00:29:36;101292.56;;;19.08
49785;BMP280;35679;38.732;-121.358;2024-02-28T00:32:25;101295.00;;;19.03
49785;BMP280;35679;38.732;-121.358;2024-02-28T00:35:15;101290.44;;;19.16
49785;BMP280;35679;38.732;-121.358;2024-02-28T00:38:04;101287.16;;;19.20
49785;BMP280;35679;38.732;-121.358;2024-02-28T00:40:54;101288.56;;;19.29
49785;BMP280;35679;38.732;-121.358;2024-02-28T00:43:43;101283.84;;;19.31
49785;BMP280;35679;38.732;-121.358;2024-02-28T00:46:33;101279.50;;;19.37
49785;BMP280;35679;38.732;-121.358;2024-02-28T00:49:22;101275.19;;;19.42
49785;BMP280;35679;38.732;-121.358;2024-02-28T00:52:12;101281.75;;;19.46
49785;BMP280;35679;38.732;-121.358;2024-02-28T00:55:01;101272.47;;;19.49
49785;BMP280;35679;38.732;-121.358;2024-02-28T00:57:50;101274.75;;;19.52
49785;BMP280;35679;38.732;-121.358;2024-02-28T01:00:40;101276.19;;;19.54
49785;BMP280;35679;38.732;-121.358;2024-02-28T01:03:29;101275.97;;;19.56
49785;BMP280;35679;38.732;-121.358;2024-02-28T01:06:19;101267.72;;;19.57
49785;BMP280;35679;38.732;-121.358;2024-02-28T01:09:08;101273.47;;;19.61
49785;BMP280;35679;38.732;-121.358;2024-02-28T01:11:58;101280.88;;;19.65
49785;BMP280;35679;38.732;-121.358;2024-02-28T01:14:47;101278.56;;;19.69
49785;BMP280;35679;38.732;-121.358;2024-02-28T01:17:37;101269.50;;;19.70
49785;BMP280;35679;38.732;-121.358;2024-02-28T01:20:27;101275.47;;;19.72
49785;BMP280;35679;38.732;-121.358;2024-02-28T01:23:17;101275.47;;;19.72
49785;BMP280;35679;38.732;-121.358;2024-02-28T01:26:06;101270.53;;;19.69
49785;BMP280;35679;38.732;-121.358;2024-02-28T01:28:56;101275.88;;;19.69
49785;BMP280;35679;38.732;-121.358;2024-02-28T01:31:46;101269.94;;;19.67
49785;BMP280;35679;38.732;-121.358;2024-02-28T01:34:35;101280.88;;;19.65
49785;BMP280;35679;38.732;-121.358;2024-02-28T01:37:25;101281.91;;;19.64
49785;BMP280;35679;38.732;-121.358;2024-02-28T01:40:14;101291.19;;;19.62
49785;BMP280;35679;38.732;-121.358;2024-02-28T01:43:07;101283.97;;;19.62
49785;BMP280;35679;38.732;-121.358;2024-02-28T01:45:59;101286.63;;;19.62
49785;BMP280;35679;38.732;-121.358;2024-02-28T01:48:48;101283.34;;;19.60
49785;BMP280;35679;38.732;-121.358;2024-02-28T01:51:38;101288.50;;;19.62
49785;BMP280;35679;38.732;-121.358;2024-02-28T01:54:29;101286.63;;;19.62
49785;BMP280;35679;38.732;-121.358;2024-02-28T01:57:19;101288.50;;;19.62
49785;BMP280;35679;38.732;-121.358;2024-02-28T02:00:09;101289.31;;;19.62
49785;BMP280;35679;38.732;-121.358;2024-02-28T02:03:00;101281.50;;;19.61
49785;BMP280;35679;38.732;-121.358;2024-02-28T02:05:50;101283.34;;;19.60
49785;BMP280;35679;38.732;-121.358;2024-02-28T02:08:39;101280.88;;;19.59
49785;BMP280;35679;38.732;-121.358;2024-02-28T02:11:29;101284.38;;;19.59
49785;BMP280;35679;38.732;-121.358;2024-02-28T02:14:19;101286.22;;;19.59
49785;BMP280;35679;38.732;-121.358;2024-02-28T02:17:08;101287.06;;;19.59
49785;BMP280;35679;38.732;-121.358;2024-02-28T02:19:58;101284.00;;;19.56
49785;BMP280;35679;38.732;-121.358;2024-02-28T02:22:48;101285.00;;;19.55
49785;BMP280;35679;38.732;-121.358;2024-02-28T02:25:47;101290.38;;;19.55
49785;BMP280;35679;38.732;-121.358;2024-02-28T02:28:37;101289.75;;;19.53
49785;BMP280;35679;38.732;-121.358;2024-02-28T02:31:26;101296.97;;;19.52
49785;BMP280;35679;38.732;-121.358;2024-02-28T02:34:15;101298.22;;;19.50
49785;BMP280;35679;38.732;-121.358;2024-02-28T02:37:08;101300.25;;;19.48
49785;BMP280;35679;38.732;-121.358;2024-02-28T02:39:57;101292.22;;;19.48
49785;BMP280;35679;38.732;-121.358;2024-02-28T02:42:47;101300.47;;;19.46
49785;BMP280;35679;38.732;-121.358;2024-02-28T02:45:36;101297.81;;;19.46
49785;BMP280;35679;38.732;-121.358;2024-02-28T02:48:26;101304.41;;;19.44
49785;BMP280;35679;38.732;-121.358;2024-02-28T02:51:16;101302.75;;;19.43
49785;BMP280;35679;38.732;-121.358;2024-02-28T02:54:07;101305.84;;;19.40
49785;BMP280;35679;38.732;-121.358;2024-02-28T02:56:56;101306.88;;;19.39
49785;BMP280;35679;38.732;-121.358;2024-02-28T02:59:46;101303.19;;;19.40
49785;BMP280;35679;38.732;-121.358;2024-02-28T03:02:35;101308.13;;;19.36
49785;BMP280;35679;38.732;-121.358;2024-02-28T03:05:27;101310.19;;;19.34
49785;BMP280;35679;38.732;-121.358;2024-02-28T03:08:16;101317.59;;;19.32
49785;BMP280;35679;38.732;-121.358;2024-02-28T03:11:06;101316.78;;;19.32
49785;BMP280;35679;38.732;-121.358;2024-02-28T03:13:57;101313.50;;;19.30
49785;BMP280;35679;38.732;-121.358;2024-02-28T03:16:47;101315.75;;;19.26
49785;BMP280;35679;38.732;-121.358;2024-02-28T03:19:37;101329.94;;;19.27
49785;BMP280;35679;38.732;-121.358;2024-02-28T03:22:27;101320.69;;;19.23
49785;BMP280;35679;38.732;-121.358;2024-02-28T03:25:16;101323.59;;;19.21
49785;BMP280;35679;38.732;-121.358;2024-02-28T03:28:06;101332.66;;;19.20
49785;BMP280;35679;38.732;-121.358;2024-02-28T03:30:55;101336.34;;;19.19
49785;BMP280;35679;38.732;-121.358;2024-02-28T03:33:45;101334.31;;;19.15
49785;BMP280;35679;38.732;-121.358;2024-02-28T03:36:35;101332.66;;;19.14
49785;BMP280;35679;38.732;-121.358;2024-02-28T03:39:25;101332.03;;;19.12
49785;BMP280;35679;38.732;-121.358;2024-02-28T03:42:15;101343.97;;;19.09
49785;BMP280;35679;38.732;-121.358;2024-02-28T03:45:05;101335.34;;;19.08
49785;BMP280;35679;38.732;-121.358;2024-02-28T03:47:54;101334.91;;;19.04
49785;BMP280;35679;38.732;-121.358;2024-02-28T03:50:44;101335.94;;;19.03
49785;BMP280;35679;38.732;-121.358;2024-02-28T03:53:33;101342.31;;;19.02
49785;BMP280;35679;38.732;-121.358;2024-02-28T03:56:23;101337.16;;;19.01
49785;BMP280;35679;38.732;-121.358;2024-02-28T03:59:16;101339.41;;;18.97
49785;BMP280;35679;38.732;-121.358;2024-02-28T04:02:05;101337.78;;;18.96
49785;BMP280;35679;38.732;-121.358;2024-02-28T04:04:55;101336.34;;;18.94
49785;BMP280;35679;38.732;-121.358;2024-02-28T04:07:44;101340.03;;;18.93
49785;BMP280;35679;38.732;-121.358;2024-02-28T04:10:34;101346.44;;;18.92
49785;BMP280;35679;38.732;-121.358;2024-02-28T04:13:23;101349.28;;;18.90
49785;BMP280;35679;38.732;-121.358;2024-02-28T04:16:13;101347.66;;;18.89
49785;BMP280;35679;38.732;-121.358;2024-02-28T04:19:02;101348.06;;;18.86
49785;BMP280;35679;38.732;-121.358;2024-02-28T04:21:51;101351.75;;;18.85
49785;BMP280;35679;38.732;-121.358;2024-02-28T04:24:41;101346.00;;;18.82
49785;BMP280;35679;38.732;-121.358;2024-02-28T04:27:30;101353.19;;;18.81
49785;BMP280;35679;38.732;-121.358;2024-02-28T04:30:20;101351.75;;;18.79
49785;BMP280;35679;38.732;-121.358;2024-02-28T04:33:09;101353.63;;;18.78
49785;BMP280;35679;38.732;-121.358;2024-02-28T04:35:59;101352.78;;;18.78
49785;BMP280;35679;38.732;-121.358;2024-02-28T04:38:48;101356.69;;;18.75
49785;BMP280;35679;38.732;-121.358;2024-02-28T04:41:38;101351.53;;;18.74
49785;BMP280;35679;38.732;-121.358;2024-02-28T04:44:27;101352.16;;;18.69
49785;BMP280;35679;38.732;-121.358;2024-02-28T04:47:16;101356.91;;;18.67
49785;BMP280;35679;38.732;-121.358;2024-02-28T04:50:13;101351.53;;;18.67
49785;BMP280;35679;38.732;-121.358;2024-02-28T04:53:03;101351.94;;;18.64
49785;BMP280;35679;38.732;-121.358;2024-02-28T04:55:53;101355.44;;;18.65
49785;BMP280;35679;38.732;-121.358;2024-02-28T04:58:42;101355.84;;;18.62
49785;BMP280;35679;38.732;-121.358;2024-02-28T05:01:31;101368.59;;;18.60
49785;BMP280;35679;38.732;-121.358;2024-02-28T05:04:21;101374.34;;;18.57
49785;BMP280;35679;38.732;-121.358;2024-02-28T05:07:10;101370.22;;;18.54
49785;BMP280;35679;38.732;-121.358;2024-02-28T05:10:00;101371.28;;;18.53
49785;BMP280;35679;38.732;-121.358;2024-02-28T05:12:49;101369.00;;;18.50
49785;BMP280;35679;38.732;-121.358;2024-02-28T05:15:39;101373.91;;;18.47
49785;BMP280;35679;38.732;-121.358;2024-02-28T05:18:29;101377.59;;;18.46
49785;BMP280;35679;38.732;-121.358;2024-02-28T05:21:19;101382.34;;;18.44
49785;BMP280;35679;38.732;-121.358;2024-02-28T05:24:09;101379.03;;;18.42
49785;BMP280;35679;38.732;-121.358;2024-02-28T05:26:58;101379.25;;;18.41
49785;BMP280;35679;38.732;-121.358;2024-02-28T05:29:48;101385.00;;;18.38
49785;BMP280;35679;38.732;-121.358;2024-02-28T05:32:37;101384.38;;;18.36
49785;BMP280;35679;38.732;-121.358;2024-02-28T05:35:27;101385.81;;;18.32
49785;BMP280;35679;38.732;-121.358;2024-02-28T05:38:16;101402.22;;;18.29
49785;BMP280;35679;38.732;-121.358;2024-02-28T05:41:06;101387.25;;;18.28
49785;BMP280;35679;38.732;-121.358;2024-02-28T05:43:55;101391.94;;;18.26
49785;BMP280;35679;38.732;-121.358;2024-02-28T05:46:45;101391.13;;;18.25
49785;BMP280;35679;38.732;-121.358;2024-02-28T05:49:34;101396.03;;;18.22
49785;BMP280;35679;38.732;-121.358;2024-02-28T05:52:24;101396.44;;;18.19
49785;BMP280;35679;38.732;-121.358;2024-02-28T05:55:17;101391.47;;;18.16
49785;BMP280;35679;38.732;-121.358;2024-02-28T05:58:06;101391.84;;;18.13
49785;BMP280;35679;38.732;-121.358;2024-02-28T06:00:56;101390.59;;;18.09
49785;BMP280;35679;38.732;-121.358;2024-02-28T06:03:47;101388.94;;;18.08
49785;BMP280;35679;38.732;-121.358;2024-02-28T06:06:37;101389.38;;;18.05
49785;BMP280;35679;38.732;-121.358;2024-02-28T06:09:27;101400.47;;;18.02
49785;BMP280;35679;38.732;-121.358;2024-02-28T06:12:16;101398.97;;;17.99
49785;BMP280;35679;38.732;-121.358;2024-02-28T06:15:06;101399.19;;;17.98
49785;BMP280;35679;38.732;-121.358;2024-02-28T06:17:59;101402.88;;;17.97
49785;BMP280;35679;38.732;-121.358;2024-02-28T06:20:52;101397.72;;;17.95
49785;BMP280;35679;38.732;-121.358;2024-02-28T06:23:42;101402.63;;;17.92
49785;BMP280;35679;38.732;-121.358;2024-02-28T06:26:31;101415.59;;;17.88
49785;BMP280;35679;38.732;-121.358;2024-02-28T06:29:21;101412.91;;;17.88
49785;BMP280;35679;38.732;-121.358;2024-02-28T06:32:11;101416.81;;;17.86
49785;BMP280;35679;38.732;-121.358;2024-02-28T06:35:00;101418.84;;;17.84
49785;BMP280;35679;38.732;-121.358;2024-02-28T06:37:49;101420.25;;;17.80
49785;BMP280;35679;38.732;-121.358;2024-02-28T06:40:40;101421.28;;;17.79
49785;BMP280;35679;38.732;-121.358;2024-02-28T06:43:33;101419.63;;;17.78
49785;BMP280;35679;38.732;-121.358;2024-02-28T06:46:24;101428.03;;;17.75
49785;BMP280;35679;38.732;-121.358;2024-02-28T06:49:13;101423.06;;;17.72
49785;BMP280;35679;38.732;-121.358;2024-02-28T06:52:06;101427.59;;;17.72
49785;BMP280;35679;38.732;-121.358;2024-02-28T06:54:56;101431.69;;;17.68
49785;BMP280;35679;38.732;-121.358;2024-02-28T06:57:45;101434.72;;;17.65
49785;BMP280;35679;38.732;-121.358;2024-02-28T07:00:35;101428.56;;;17.64
49785;BMP280;35679;38.732;-121.358;2024-02-28T07:03:24;101426.28;;;17.61
49785;BMP280;35679;38.732;-121.358;2024-02-28T07:06:14;101426.28;;;17.61
49785;BMP280;35679;38.732;-121.358;2024-02-28T07:09:03;101426.47;;;17.60
49785;BMP280;35679;38.732;-121.358;2024-02-28T07:11:53;101428.69;;;17.56
49785;BMP280;35679;38.732;-121.358;2024-02-28T07:14:42;101427.25;;;17.54
49785;BMP280;35679;38.732;-121.358;2024-02-28T07:17:32;101432.78;;;17.52
49785;BMP280;35679;38.732;-121.358;2024-02-28T07:20:22;101430.53;;;17.49
49785;BMP280;35679;38.732;-121.358;2024-02-28T07:23:13;101432.53;;;17.47
49785;BMP280;35679;38.732;-121.358;2024-02-28T07:26:03;101429.06;;;17.47
49785;BMP280;35679;38.732;-121.358;2024-02-28T07:29:06;101435.63;;;17.44
49785;BMP280;35679;38.732;-121.358;2024-02-28T07:31:55;101433.97;;;17.43
49785;BMP280;35679;38.732;-121.358;2024-02-28T07:34:45;101440.31;;;17.42
49785;BMP280;35679;38.732;-121.358;2024-02-28T07:37:35;101436.81;;;17.42
49785;BMP280;35679;38.732;-121.358;2024-02-28T07:40:25;101430.03;;;17.39
49785;BMP280;35679;38.732;-121.358;2024-02-28T07:43:14;101427.94;;;17.35
49785;BMP280;35679;38.732;-121.358;2024-02-28T07:46:10;101432.47;;;17.34
49785;BMP280;35679;38.732;-121.358;2024-02-28T07:49:01;101437.97;;;17.33
49785;BMP280;35679;38.732;-121.358;2024-02-28T07:51:51;101427.50;;;17.31
49785;BMP280;35679;38.732;-121.358;2024-02-28T07:54:44;101437.53;;;17.29
49785;BMP280;35679;38.732;-121.358;2024-02-28T07:57:33;101434.03;;;17.29
49785;BMP280;35679;38.732;-121.358;2024-02-28T08:00:23;101431.78;;;17.26
49785;BMP280;35679;38.732;-121.358;2024-02-28T08:03:14;101439.91;;;17.24
49785;BMP280;35679;38.732;-121.358;2024-02-28T08:06:04;101442.97;;;17.21
49785;BMP280;35679;38.732;-121.358;2024-02-28T08:08:54;101443.97;;;17.20
49785;BMP280;35679;38.732;-121.358;2024-02-28T08:11:43;101448.31;;;17.21
49785;BMP280;35679;38.732;-121.358;2024-02-28T08:14:33;101449.06;;;17.15
49785;BMP280;35679;38.732;-121.358;2024-02-28T08:17:22;101447.41;;;17.14
49785;BMP280;35679;38.732;-121.358;2024-02-28T08:20:12;101452.13;;;17.12
49785;BMP280;35679;38.732;-121.358;2024-02-28T08:23:03;101444.13;;;17.12
49785;BMP280;35679;38.732;-121.358;2024-02-28T08:25:52;101441.84;;;17.09
49785;BMP280;35679;38.732;-121.358;2024-02-28T08:28:42;101443.25;;;17.06
49785;BMP280;35679;38.732;-121.358;2024-02-28T08:31:31;101444.44;;;17.03
49785;BMP280;35679;38.732;-121.358;2024-02-28T08:34:21;101439.13;;;17.03
49785;BMP280;35679;38.732;-121.358;2024-02-28T08:37:10;101436.66;;;17.02
49785;BMP280;35679;38.732;-121.358;2024-02-28T08:40:00;101434.19;;;17.00
49785;BMP280;35679;38.732;-121.358;2024-02-28T08:42:50;101431.06;;;16.97
49785;BMP280;35679;38.732;-121.358;2024-02-28T08:45:42;101437.00;;;16.99
49785;BMP280;35679;38.732;-121.358;2024-02-28T08:48:32;101431.88;;;16.97
49785;BMP280;35679;38.732;-121.358;2024-02-28T08:51:23;101437.41;;;16.96
49785;BMP280;35679;38.732;-121.358;2024-02-28T08:54:12;101437.78;;;16.93
49785;BMP280;35679;38.732;-121.358;2024-02-28T08:57:02;101438.81;;;16.92
49785;BMP280;35679;38.732;-121.358;2024-02-28T08:59:52;101439.00;;;16.90
49785;BMP280;35679;38.732;-121.358;2024-02-28T09:02:42;101436.69;;;16.87
49785;BMP280;35679;38.732;-121.358;2024-02-28T09:05:31;101434.88;;;16.88
49785;BMP280;35679;38.732;-121.358;2024-02-28T09:08:21;101439.56;;;16.86
49785;BMP280;35679;38.732;-121.358;2024-02-28T09:11:10;101440.13;;;16.81
49785;BMP280;35679;38.732;-121.358;2024-02-28T09:14:02;101438.47;;;16.80
49785;BMP280;35679;38.732;-121.358;2024-02-28T09:16:52;101441.97;;;16.81
49785;BMP280;35679;38.732;-121.358;2024-02-28T09:19:42;101441.31;;;16.79
49785;BMP280;35679;38.732;-121.358;2024-02-28T09:22:32;101441.13;;;16.80
49785;BMP280;35679;38.732;-121.358;2024-02-28T09:25:22;101439.66;;;16.78
49785;BMP280;35679;38.732;-121.358;2024-02-28T09:28:15;101436.59;;;16.74
49785;BMP280;35679;38.732;-121.358;2024-02-28T09:31:06;101434.09;;;16.73
49785;BMP280;35679;38.732;-121.358;2024-02-28T09:33:55;101436.94;;;16.71
49785;BMP280;35679;38.732;-121.358;2024-02-28T09:36:47;101435.13;;;16.72
49785;BMP280;35679;38.732;-121.358;2024-02-28T09:39:38;101433.66;;;16.69
49785;BMP280;35679;38.732;-121.358;2024-02-28T09:42:31;101442.66;;;16.68
49785;BMP280;35679;38.732;-121.358;2024-02-28T09:45:22;101435.88;;;16.66
49785;BMP280;35679;38.732;-121.358;2024-02-28T09:48:16;101438.91;;;16.63
49785;BMP280;35679;38.732;-121.358;2024-02-28T09:51:06;101439.91;;;16.62
49785;BMP280;35679;38.732;-121.358;2024-02-28T09:53:58;101441.94;;;16.60
49785;BMP280;35679;38.732;-121.358;2024-02-28T09:56:51;101437.81;;;16.57
49785;BMP280;35679;38.732;-121.358;2024-02-28T09:59:42;101437.63;;;16.59
49785;BMP280;35679;38.732;-121.358;2024-02-28T10:02:43;101431.66;;;16.57
49785;BMP280;35679;38.732;-121.358;2024-02-28T10:05:34;101440.84;;;16.54
49785;BMP280;35679;38.732;-121.358;2024-02-28T10:08:24;101432.25;;;16.52
49785;BMP280;35679;38.732;-121.358;2024-02-28T10:11:22;101433.25;;;16.51
49785;BMP280;35679;38.732;-121.358;2024-02-28T10:14:16;101428.72;;;16.52
49785;BMP280;35679;38.732;-121.358;2024-02-28T10:17:06;101426.25;;;16.50
49785;BMP280;35679;38.732;-121.358;2024-02-28T10:19:58;101432.44;;;16.51
49785;BMP280;35679;38.732;-121.358;2024-02-28T10:22:48;101439.78;;;16.49
49785;BMP280;35679;38.732;-121.358;2024-02-28T10:25:47;101426.66;;;16.47
49785;BMP280;35679;38.732;-121.358;2024-02-28T10:28:40;101435.66;;;16.46
49785;BMP280;35679;38.732;-121.358;2024-02-28T10:31:32;101427.19;;;16.43
49785;BMP280;35679;38.732;-121.358;2024-02-28T10:34:22;101427.66;;;16.46
49785;BMP280;35679;38.732;-121.358;2024-02-28T10:37:12;101422.53;;;16.45
49785;BMP280;35679;38.732;-121.358;2024-02-28T10:40:02;101421.25;;;16.41
49785;BMP280;35679;38.732;-121.358;2024-02-28T10:42:53;101414.28;;;16.40
49785;BMP280;35679;38.732;-121.358;2024-02-28T10:45:43;101414.44;;;16.39
49785;BMP280;35679;38.732;-121.358;2024-02-28T10:48:52;101422.63;;;16.37
49785;BMP280;35679;38.732;-121.358;2024-02-28T10:51:46;101418.50;;;16.35
49785;BMP280;35679;38.732;-121.358;2024-02-28T10:54:36;101414.81;;;16.36
49785;BMP280;35679;38.732;-121.358;2024-02-28T10:57:29;101415.00;;;16.34
49785;BMP280;35679;38.732;-121.358;2024-02-28T11:00:20;101409.31;;;16.37
49785;BMP280;35679;38.732;-121.358;2024-02-28T11:03:10;101410.03;;;16.31
49785;BMP280;35679;38.732;-121.358;2024-02-28T11:06:00;101412.09;;;16.29
49785;BMP280;35679;38.732;-121.358;2024-02-28T11:08:51;101411.09;;;16.30
49785;BMP280;35679;38.732;-121.358;2024-02-28T11:11:45;101416.41;;;16.30
49785;BMP280;35679;38.732;-121.358;2024-02-28T11:14:35;101416.66;;;16.35
49785;BMP280;35679;38.732;-121.358;2024-02-28T11:17:29;101420.34;;;16.34
49785;BMP280;35679;38.732;-121.358;2024-02-28T11:20:20;101412.41;;;16.26
49785;BMP280;35679;38.732;-121.358;2024-02-28T11:23:11;101407.97;;;16.27
49785;BMP280;35679;38.732;-121.358;2024-02-28T11:26:03;101413.59;;;16.24
49785;BMP280;35679;38.732;-121.358;2024-02-28T11:28:56;101410.13;;;16.23
49785;BMP280;35679;38.732;-121.358;2024-02-28T11:31:45;101411.78;;;16.24
49785;BMP280;35679;38.732;-121.358;2024-02-28T11:34:34;101407.84;;;16.20
49785;BMP280;35679;38.732;-121.358;2024-02-28T11:37:24;101407.66;;;16.22
49785;BMP280;35679;38.732;-121.358;2024-02-28T11:40:13;101401.69;;;16.20
49785;BMP280;35679;38.732;-121.358;2024-02-28T11:43:03;101400.88;;;16.19
49785;BMP280;35679;38.732;-121.358;2024-02-28T11:45:53;101403.53;;;16.19
49785;BMP280;35679;38.732;-121.358;2024-02-28T11:48:44;101405.75;;;16.16
49785;BMP280;35679;38.732;-121.358;2024-02-28T11:51:34;101404.53;;;16.18
49785;BMP280;35679;38.732;-121.358;2024-02-28T11:54:25;101413.06;;;16.14
49785;BMP280;35679;38.732;-121.358;2024-02-28T11:57:14;101412.06;;;16.15
49785;BMP280;35679;38.732;-121.358;2024-02-28T12:00:09;101409.59;;;16.13
49785;BMP280;35679;38.732;-121.358;2024-02-28T12:03:05;101407.56;;;16.15
49785;BMP280;35679;38.732;-121.358;2024-02-28T12:05:55;101408.59;;;16.14
49785;BMP280;35679;38.732;-121.358;2024-02-28T12:08:45;101404.47;;;16.12
49785;BMP280;35679;38.732;-121.358;2024-02-28T12:11:35;101406.88;;;16.07
49785;BMP280;35679;38.732;-121.358;2024-02-28T12:14:25;101407.22;;;16.04
49785;BMP280;35679;38.732;-121.358;2024-02-28T12:17:15;101405.22;;;16.06
49785;BMP280;35679;38.732;-121.358;2024-02-28T12:20:05;101407.41;;;16.02
49785;BMP280;35679;38.732;-121.358;2024-02-28T12:22:55;101416.22;;;16.03
49785;BMP280;35679;38.732;-121.358;2024-02-28T12:25:44;101411.06;;;16.01
49785;BMP280;35679;38.732;-121.358;2024-02-28T12:28:34;101411.47;;;15.98
49785;BMP280;35679;38.732;-121.358;2024-02-28T12:31:23;101408.59;;;16.00
49785;BMP280;35679;38.732;-121.358;2024-02-28T12:34:12;101409.41;;;16.00
49785;BMP280;35679;38.732;-121.358;2024-02-28T12:37:04;101416.97;;;15.97
49785;BMP280;35679;38.732;-121.358;2024-02-28T12:39:54;101405.88;;;15.93
49785;BMP280;35679;38.732;-121.358;2024-02-28T12:42:43;101400.72;;;15.92
49785;BMP280;35679;38.732;-121.358;2024-02-28T12:45:33;101408.69;;;15.92
49785;BMP280;35679;38.732;-121.358;2024-02-28T12:48:23;101406.88;;;15.92
49785;BMP280;35679;38.732;-121.358;2024-02-28T12:51:35;101403.56;;;15.90
49785;BMP280;35679;38.732;-121.358;2024-02-28T12:54:25;101409.06;;;15.89
49785;BMP280;35679;38.732;-121.358;2024-02-28T12:57:15;101403.28;;;15.85
49785;BMP280;35679;38.732;-121.358;2024-02-28T13:00:06;101401.81;;;15.83
49785;BMP280;35679;38.732;-121.358;2024-02-28T13:02:57;101389.97;;;15.85
49785;BMP280;35679;38.732;-121.358;2024-02-28T13:05:46;101400.63;;;15.85
49785;BMP280;35679;38.732;-121.358;2024-02-28T13:08:36;101404.22;;;15.78
49785;BMP280;35679;38.732;-121.358;2024-02-28T13:11:25;101397.69;;;15.80
49785;BMP280;35679;38.732;-121.358;2024-02-28T13:14:15;101401.94;;;15.75
49785;BMP280;35679;38.732;-121.358;2024-02-28T13:17:04;101399.06;;;15.76
49785;BMP280;35679;38.732;-121.358;2024-02-28T13:19:54;101407.25;;;15.75
49785;BMP280;35679;38.732;-121.358;2024-02-28T13:22:44;101408.63;;;15.71
49785;BMP280;35679;38.732;-121.358;2024-02-28T13:25:33;101409.63;;;15.70
49785;BMP280;35679;38.732;-121.358;2024-02-28T13:28:23;101406.78;;;15.72
49785;BMP280;35679;38.732;-121.358;2024-02-28T13:31:18;101402.13;;;15.74
49785;BMP280;35679;38.732;-121.358;2024-02-28T13:34:07;101412.09;;;15.72
49785;BMP280;35679;38.732;-121.358;2024-02-28T13:36:57;101415.03;;;15.76
49785;BMP280;35679;38.732;-121.358;2024-02-28T13:39:47;101410.44;;;15.71
49785;BMP280;35679;38.732;-121.358;2024-02-28T13:42:40;101407.31;;;15.67
49785;BMP280;35679;38.732;-121.358;2024-02-28T13:45:30;101415.97;;;15.69
49785;BMP280;35679;38.732;-121.358;2024-02-28T13:48:23;101410.44;;;15.71
49785;BMP280;35679;38.732;-121.358;2024-02-28T13:51:19;101417.34;;;15.65
49785;BMP280;35679;38.732;-121.358;2024-02-28T13:54:09;101415.69;;;15.64
49785;BMP280;35679;38.732;-121.358;2024-02-28T13:56:58;101421.47;;;15.68
49785;BMP280;35679;38.732;-121.358;2024-02-28T13:59:47;101415.97;;;15.69
49785;BMP280;35679;38.732;-121.358;2024-02-28T14:02:38;101417.88;;;15.61
49785;BMP280;35679;38.732;-121.358;2024-02-28T14:05:28;101420.72;;;15.59
49785;BMP280;35679;38.732;-121.358;2024-02-28T14:08:18;101421.91;;;15.57
49785;BMP280;35679;38.732;-121.358;2024-02-28T14:11:07;101426.41;;;15.56
49785;BMP280;35679;38.732;-121.358;2024-02-28T14:13:57;101421.25;;;15.55
49785;BMP280;35679;38.732;-121.358;2024-02-28T14:16:47;101421.25;;;15.55
49785;BMP280;35679;38.732;-121.358;2024-02-28T14:19:37;101425.19;;;15.59
49785;BMP280;35679;38.732;-121.358;2024-02-28T14:22:26;101423.38;;;15.59
49785;BMP280;35679;38.732;-121.358;2024-02-28T14:25:17;101422.25;;;15.54
49785;BMP280;35679;38.732;-121.358;2024-02-28T14:28:07;101419.97;;;15.51
49785;BMP280;35679;38.732;-121.358;2024-02-28T14:30:56;101422.63;;;15.51
49785;BMP280;35679;38.732;-121.358;2024-02-28T14:33:45;101423.28;;;15.53
49785;BMP280;35679;38.732;-121.358;2024-02-28T14:36:35;101430.63;;;15.51
49785;BMP280;35679;38.732;-121.358;2024-02-28T14:39:25;101433.66;;;15.48
49785;BMP280;35679;38.732;-121.358;2024-02-28T14:42:14;101423.16;;;15.46
49785;BMP280;35679;38.732;-121.358;2024-02-28T14:45:10;101434.66;;;15.47
49785;BMP280;35679;38.732;-121.358;2024-02-28T14:48:00;101436.66;;;15.45
49785;BMP280;35679;38.732;-121.358;2024-02-28T14:50:50;101435.84;;;15.44
49785;BMP280;35679;38.732;-121.358;2024-02-28T14:53:40;101438.84;;;15.41
49785;BMP280;35679;38.732;-121.358;2024-02-28T14:56:29;101436.19;;;15.41
49785;BMP280;35679;38.732;-121.358;2024-02-28T14:59:19;101437.84;;;15.42
49785;BMP280;35679;38.732;-121.358;2024-02-28T15:02:11;101441.50;;;15.41
49785;BMP280;35679;38.732;-121.358;2024-02-28T15:05:01;101443.97;;;15.43
49785;BMP280;35679;38.732;-121.358;2024-02-28T15:07:54;101443.53;;;15.39
49785;BMP280;35679;38.732;-121.358;2024-02-28T15:10:44;101447.00;;;15.40
49785;BMP280;35679;38.732;-121.358;2024-02-28T15:13:33;101451.34;;;15.41
49785;BMP280;35679;38.732;-121.358;2024-02-28T15:16:23;101455.00;;;15.40
49785;BMP280;35679;38.732;-121.358;2024-02-28T15:19:12;101458.66;;;15.39
49785;BMP280;35679;38.732;-121.358;2024-02-28T15:22:03;101462.97;;;15.40
49785;BMP280;35679;38.732;-121.358;2024-02-28T15:24:53;101464.63;;;15.41
49785;BMP280;35679;38.732;-121.358;2024-02-28T15:27:43;101475.91;;;15.43